sensor_id;sensor_type;location;lat;lon;timestamp;temperature;humidity
47626;DHT22;33342;45.574;9.252;2023-05-16T00:00:52;19.70;99.90
47626;DHT22;33342;45.574;9.252;2023-05-16T00:03:19;19.60;99.90
47626;DHT22;33342;45.574;9.252;2023-05-16T00:05:46;19.50;99.90
47626;DHT22;33342;45.574;9.252;2023-05-16T00:08:14;19.50;99.90
47626;DHT22;33342;45.574;9.252;2023-05-16T00:10:41;19.50;99.90
47626;DHT22;33342;45.574;9.252;2023-05-16T00:13:08;19.40;99.90
47626;DHT22;33342;45.574;9.252;2023-05-16T00:15:35;19.40;99.90
47626;DHT22;33342;45.574;9.252;2023-05-16T00:18:04;19.30;99.90
47626;DHT22;33342;45.574;9.252;2023-05-16T00:20:31;19.30;99.90
47626;DHT22;33342;45.574;9.252;2023-05-16T00:22:58;19.30;99.90
47626;DHT22;33342;45.574;9.252;2023-05-16T00:25:28;19.20;99.90
47626;DHT22;33342;45.574;9.252;2023-05-16T00:27:55;19.20;99.90
47626;DHT22;33342;45.574;9.252;2023-05-16T00:30:22;19.10;99.90
47626;DHT22;33342;45.574;9.252;2023-05-16T00:32:50;19.10;99.90
47626;DHT22;33342;45.574;9.252;2023-05-16T00:35:18;19.10;99.90
47626;DHT22;33342;45.574;9.252;2023-05-16T00:37:45;19.10;99.90
47626;DHT22;33342;45.574;9.252;2023-05-16T00:40:12;19.00;99.90
47626;DHT22;33342;45.574;9.252;2023-05-16T00:42:39;19.00;99.90
47626;DHT22;33342;45.574;9.252;2023-05-16T00:45:06;19.00;99.90
47626;DHT22;33342;45.574;9.252;2023-05-16T00:47:34;19.00;99.90
47626;DHT22;33342;45.574;9.252;2023-05-16T00:50:02;18.90;99.90
47626;DHT22;33342;45.574;9.252;2023-05-16T00:52:30;18.80;99.90
47626;DHT22;33342;45.574;9.252;2023-05-16T00:54:59;18.80;99.90
47626;DHT22;33342;45.574;9.252;2023-05-16T00:57:27;18.80;99.90
47626;DHT22;33342;45.574;9.252;2023-05-16T00:59:54;18.80;99.90
47626;DHT22;33342;45.574;9.252;2023-05-16T01:02:21;18.80;99.90
47626;DHT22;33342;45.574;9.252;2023-05-16T01:04:48;18.70;99.90
47626;DHT22;33342;45.574;9.252;2023-05-16T01:07:17;18.70;99.90
47626;DHT22;33342;45.574;9.252;2023-05-16T01:09:44;18.70;99.90
47626;DHT22;33342;45.574;9.252;2023-05-16T01:12:36;18.60;99.90
47626;DHT22;33342;45.574;9.252;2023-05-16T01:15:08;18.60;99.90
47626;DHT22;33342;45.574;9.252;2023-05-16T01:20:27;18.60;99.90
47626;DHT22;33342;45.574;9.252;2023-05-16T01:23:23;18.60;99.90
47626;DHT22;33342;45.574;9.252;2023-05-16T01:26:12;18.50;99.90
47626;DHT22;33342;45.574;9.252;2023-05-16T01:28:40;18.50;99.90
47626;DHT22;33342;45.574;9.252;2023-05-16T01:31:07;18.50;99.90
47626;DHT22;33342;45.574;9.252;2023-05-16T01:33:34;18.50;99.90
47626;DHT22;33342;45.574;9.252;2023-05-16T01:36:37;18.50;99.90
47626;DHT22;33342;45.574;9.252;2023-05-16T01:39:01;18.50;99.90
47626;DHT22;33342;45.574;9.252;2023-05-16T01:44:18;18.40;99.90
47626;DHT22;33342;45.574;9.252;2023-05-16T01:46:47;18.40;99.90
47626;DHT22;33342;45.574;9.252;2023-05-16T01:51:53;18.30;99.90
47626;DHT22;33342;45.574;9.252;2023-05-16T01:54:24;18.30;99.90
47626;DHT22;33342;45.574;9.252;2023-05-16T01:56:53;18.30;99.90
47626;DHT22;33342;45.574;9.252;2023-05-16T01:59:23;18.20;99.90
47626;DHT22;33342;45.574;9.252;2023-05-16T02:01:53;18.20;99.90
47626;DHT22;33342;45.574;9.252;2023-05-16T02:04:21;18.10;99.90
47626;DHT22;33342;45.574;9.252;2023-05-16T02:06:48;18.10;99.90
47626;DHT22;33342;45.574;9.252;2023-05-16T02:09:16;18.10;99.90
47626;DHT22;33342;45.574;9.252;2023-05-16T02:11:43;18.10;99.90
47626;DHT22;33342;45.574;9.252;2023-05-16T02:14:10;18.00;99.90
47626;DHT22;33342;45.574;9.252;2023-05-16T02:16:37;18.00;99.90
47626;DHT22;33342;45.574;9.252;2023-05-16T02:19:04;18.00;99.90
47626;DHT22;33342;45.574;9.252;2023-05-16T02:21:32;18.00;99.90
47626;DHT22;33342;45.574;9.252;2023-05-16T02:23:59;18.00;99.90
47626;DHT22;33342;45.574;9.252;2023-05-16T02:26:27;17.90;99.90
47626;DHT22;33342;45.574;9.252;2023-05-16T02:28:54;18.00;99.90
47626;DHT22;33342;45.574;9.252;2023-05-16T02:31:31;18.00;99.90
47626;DHT22;33342;45.574;9.252;2023-05-16T02:33:58;18.00;99.90
47626;DHT22;33342;45.574;9.252;2023-05-16T02:36:26;18.10;99.90
47626;DHT22;33342;45.574;9.252;2023-05-16T02:38:54;18.10;99.90
47626;DHT22;33342;45.574;9.252;2023-05-16T02:41:22;18.10;99.90
47626;DHT22;33342;45.574;9.252;2023-05-16T02:43:49;18.10;99.90
47626;DHT22;33342;45.574;9.252;2023-05-16T02:46:27;18.10;99.90
47626;DHT22;33342;45.574;9.252;2023-05-16T02:48:55;18.10;99.90
47626;DHT22;33342;45.574;9.252;2023-05-16T02:51:24;18.00;99.90
47626;DHT22;33342;45.574;9.252;2023-05-16T02:53:52;18.00;99.90
47626;DHT22;33342;45.574;9.252;2023-05-16T02:56:19;17.90;99.90
47626;DHT22;33342;45.574;9.252;2023-05-16T02:58:48;17.90;99.90
47626;DHT22;33342;45.574;9.252;2023-05-16T03:01:16;17.80;99.90
47626;DHT22;33342;45.574;9.252;2023-05-16T03:03:43;17.70;99.90
47626;DHT22;33342;45.574;9.252;2023-05-16T03:06:10;17.70;99.90
47626;DHT22;33342;45.574;9.252;2023-05-16T03:08:38;17.70;99.90
47626;DHT22;33342;45.574;9.252;2023-05-16T03:11:05;17.70;99.90
47626;DHT22;33342;45.574;9.252;2023-05-16T03:13:32;17.70;99.90
47626;DHT22;33342;45.574;9.252;2023-05-16T03:15:59;17.70;99.90
47626;DHT22;33342;45.574;9.252;2023-05-16T03:18:26;17.70;99.90
47626;DHT22;33342;45.574;9.252;2023-05-16T03:20:53;17.70;99.90
47626;DHT22;33342;45.574;9.252;2023-05-16T03:23:23;17.60;99.90
47626;DHT22;33342;45.574;9.252;2023-05-16T03:25:50;17.60;99.90
47626;DHT22;33342;45.574;9.252;2023-05-16T03:28:20;17.60;99.90
47626;DHT22;33342;45.574;9.252;2023-05-16T03:30:47;17.60;99.90
47626;DHT22;33342;45.574;9.252;2023-05-16T03:33:14;17.60;99.90
47626;DHT22;33342;45.574;9.252;2023-05-16T03:35:42;17.60;99.90
47626;DHT22;33342;45.574;9.252;2023-05-16T03:38:09;17.60;99.90
47626;DHT22;33342;45.574;9.252;2023-05-16T03:40:36;17.60;99.90
47626;DHT22;33342;45.574;9.252;2023-05-16T03:43:03;17.60;99.90
47626;DHT22;33342;45.574;9.252;2023-05-16T03:45:31;17.60;99.90
47626;DHT22;33342;45.574;9.252;2023-05-16T03:47:58;17.60;99.90
47626;DHT22;33342;45.574;9.252;2023-05-16T03:50:25;17.60;99.90
47626;DHT22;33342;45.574;9.252;2023-05-16T03:52:52;17.60;99.90
47626;DHT22;33342;45.574;9.252;2023-05-16T03:55:20;17.60;99.90
47626;DHT22;33342;45.574;9.252;2023-05-16T03:57:47;17.60;99.90
47626;DHT22;33342;45.574;9.252;2023-05-16T04:00:16;17.60;99.90
47626;DHT22;33342;45.574;9.252;2023-05-16T04:02:43;17.60;99.90
47626;DHT22;33342;45.574;9.252;2023-05-16T04:05:11;17.60;99.90
47626;DHT22;33342;45.574;9.252;2023-05-16T04:07:39;17.60;99.90
47626;DHT22;33342;45.574;9.252;2023-05-16T04:10:07;17.60;99.90
47626;DHT22;33342;45.574;9.252;2023-05-16T04:12:34;17.60;99.90
47626;DHT22;33342;45.574;9.252;2023-05-16T04:15:03;17.60;99.90
47626;DHT22;33342;45.574;9.252;2023-05-16T04:17:30;17.60;99.90
47626;DHT22;33342;45.574;9.252;2023-05-16T04:19:57;17.60;99.90
47626;DHT22;33342;45.574;9.252;2023-05-16T04:22:24;17.60;99.90
47626;DHT22;33342;45.574;9.252;2023-05-16T04:24:51;17.60;99.90
47626;DHT22;33342;45.574;9.252;2023-05-16T04:27:18;17.60;99.90
47626;DHT22;33342;45.574;9.252;2023-05-16T04:29:45;17.70;99.90
47626;DHT22;33342;45.574;9.252;2023-05-16T04:32:12;17.70;99.90
47626;DHT22;33342;45.574;9.252;2023-05-16T04:34:39;17.60;99.90
47626;DHT22;33342;45.574;9.252;2023-05-16T04:37:07;17.60;99.90
47626;DHT22;33342;45.574;9.252;2023-05-16T04:39:36;17.60;99.90
47626;DHT22;33342;45.574;9.252;2023-05-16T04:42:04;17.60;99.90
47626;DHT22;33342;45.574;9.252;2023-05-16T04:44:31;17.60;99.90
47626;DHT22;33342;45.574;9.252;2023-05-16T04:46:58;17.60;99.90
47626;DHT22;33342;45.574;9.252;2023-05-16T04:49:25;17.60;99.90
47626;DHT22;33342;45.574;9.252;2023-05-16T04:51:52;17.60;99.90
47626;DHT22;33342;45.574;9.252;2023-05-16T04:54:19;17.60;99.90
47626;DHT22;33342;45.574;9.252;2023-05-16T04:56:46;17.60;99.90
47626;DHT22;33342;45.574;9.252;2023-05-16T04:59:13;17.70;99.90
47626;DHT22;33342;45.574;9.252;2023-05-16T05:01:40;17.70;99.90
47626;DHT22;33342;45.574;9.252;2023-05-16T05:04:08;17.70;99.90
47626;DHT22;33342;45.574;9.252;2023-05-16T05:06:34;17.70;99.90
47626;DHT22;33342;45.574;9.252;2023-05-16T05:09:01;17.70;99.90
47626;DHT22;33342;45.574;9.252;2023-05-16T05:11:28;17.70;99.90
47626;DHT22;33342;45.574;9.252;2023-05-16T05:13:55;17.70;99.90
47626;DHT22;33342;45.574;9.252;2023-05-16T05:16:22;17.70;99.90
47626;DHT22;33342;45.574;9.252;2023-05-16T05:18:49;17.70;99.90
47626;DHT22;33342;45.574;9.252;2023-05-16T05:21:17;17.70;99.90
47626;DHT22;33342;45.574;9.252;2023-05-16T05:23:45;17.70;99.90
47626;DHT22;33342;45.574;9.252;2023-05-16T05:26:15;17.70;99.90
47626;DHT22;33342;45.574;9.252;2023-05-16T05:28:42;17.80;99.90
47626;DHT22;33342;45.574;9.252;2023-05-16T05:31:19;17.80;99.90
47626;DHT22;33342;45.574;9.252;2023-05-16T05:33:47;17.80;99.90
47626;DHT22;33342;45.574;9.252;2023-05-16T05:36:15;17.90;99.90
47626;DHT22;33342;45.574;9.252;2023-05-16T05:38:41;18.00;99.90
47626;DHT22;33342;45.574;9.252;2023-05-16T05:41:08;18.00;99.90
47626;DHT22;33342;45.574;9.252;2023-05-16T05:43:37;18.00;99.90
47626;DHT22;33342;45.574;9.252;2023-05-16T05:46:05;18.00;99.90
47626;DHT22;33342;45.574;9.252;2023-05-16T05:48:32;18.10;99.90
47626;DHT22;33342;45.574;9.252;2023-05-16T05:51:00;18.10;99.90
47626;DHT22;33342;45.574;9.252;2023-05-16T05:53:27;18.20;99.90
47626;DHT22;33342;45.574;9.252;2023-05-16T05:55:54;18.20;99.90
47626;DHT22;33342;45.574;9.252;2023-05-16T05:58:21;18.30;99.90
47626;DHT22;33342;45.574;9.252;2023-05-16T06:00:47;18.30;99.90
47626;DHT22;33342;45.574;9.252;2023-05-16T06:03:14;18.30;99.90
47626;DHT22;33342;45.574;9.252;2023-05-16T06:05:42;18.40;99.90
47626;DHT22;33342;45.574;9.252;2023-05-16T06:08:09;18.40;99.90
47626;DHT22;33342;45.574;9.252;2023-05-16T06:10:36;18.40;99.90
47626;DHT22;33342;45.574;9.252;2023-05-16T06:13:03;18.40;99.90
47626;DHT22;33342;45.574;9.252;2023-05-16T06:15:30;18.40;99.90
47626;DHT22;33342;45.574;9.252;2023-05-16T06:17:57;18.50;99.90
47626;DHT22;33342;45.574;9.252;2023-05-16T06:20:25;18.50;99.90
47626;DHT22;33342;45.574;9.252;2023-05-16T06:22:52;18.60;99.90
47626;DHT22;33342;45.574;9.252;2023-05-16T06:25:19;18.70;99.90
47626;DHT22;33342;45.574;9.252;2023-05-16T06:27:46;18.70;99.90
47626;DHT22;33342;45.574;9.252;2023-05-16T06:30:13;18.70;99.90
47626;DHT22;33342;45.574;9.252;2023-05-16T06:32:40;18.80;99.90
47626;DHT22;33342;45.574;9.252;2023-05-16T06:35:07;18.80;99.90
47626;DHT22;33342;45.574;9.252;2023-05-16T06:37:35;18.80;99.90
47626;DHT22;33342;45.574;9.252;2023-05-16T06:40:02;18.80;99.90
47626;DHT22;33342;45.574;9.252;2023-05-16T06:42:30;18.80;99.90
47626;DHT22;33342;45.574;9.252;2023-05-16T06:44:57;18.80;99.90
47626;DHT22;33342;45.574;9.252;2023-05-16T06:47:24;18.80;99.90
47626;DHT22;33342;45.574;9.252;2023-05-16T06:49:51;18.80;99.90
47626;DHT22;33342;45.574;9.252;2023-05-16T06:52:18;18.80;99.90
47626;DHT22;33342;45.574;9.252;2023-05-16T06:54:45;18.90;99.90
47626;DHT22;33342;45.574;9.252;2023-05-16T06:57:12;18.90;99.90
47626;DHT22;33342;45.574;9.252;2023-05-16T06:59:45;18.90;99.90
47626;DHT22;33342;45.574;9.252;2023-05-16T07:02:12;18.90;99.90
47626;DHT22;33342;45.574;9.252;2023-05-16T07:04:39;19.00;99.90
47626;DHT22;33342;45.574;9.252;2023-05-16T07:07:06;19.00;99.90
47626;DHT22;33342;45.574;9.252;2023-05-16T07:09:36;19.10;99.90
47626;DHT22;33342;45.574;9.252;2023-05-16T07:12:03;19.10;99.90
47626;DHT22;33342;45.574;9.252;2023-05-16T07:14:30;19.20;99.90
47626;DHT22;33342;45.574;9.252;2023-05-16T07:16:57;19.30;99.90
47626;DHT22;33342;45.574;9.252;2023-05-16T07:19:25;19.30;99.90
47626;DHT22;33342;45.574;9.252;2023-05-16T07:21:52;19.40;99.90
47626;DHT22;33342;45.574;9.252;2023-05-16T07:24:19;19.40;99.90
47626;DHT22;33342;45.574;9.252;2023-05-16T07:26:46;19.50;99.90
47626;DHT22;33342;45.574;9.252;2023-05-16T07:29:13;19.50;99.90
47626;DHT22;33342;45.574;9.252;2023-05-16T07:31:41;19.60;99.90
47626;DHT22;33342;45.574;9.252;2023-05-16T07:34:09;19.60;99.90
47626;DHT22;33342;45.574;9.252;2023-05-16T07:36:37;19.70;99.90
47626;DHT22;33342;45.574;9.252;2023-05-16T07:39:04;19.70;99.90
47626;DHT22;33342;45.574;9.252;2023-05-16T07:41:33;19.80;99.90
47626;DHT22;33342;45.574;9.252;2023-05-16T07:44:00;19.80;99.90
47626;DHT22;33342;45.574;9.252;2023-05-16T07:46:27;19.80;99.90
47626;DHT22;33342;45.574;9.252;2023-05-16T07:48:55;19.90;99.90
47626;DHT22;33342;45.574;9.252;2023-05-16T07:51:22;19.90;99.90
47626;DHT22;33342;45.574;9.252;2023-05-16T07:53:49;19.90;99.90
47626;DHT22;33342;45.574;9.252;2023-05-16T07:56:16;20.00;99.90
47626;DHT22;33342;45.574;9.252;2023-05-16T07:58:43;20.00;99.90
47626;DHT22;33342;45.574;9.252;2023-05-16T08:01:10;20.10;99.90
47626;DHT22;33342;45.574;9.252;2023-05-16T08:03:38;20.00;99.90
47626;DHT22;33342;45.574;9.252;2023-05-16T08:06:05;20.00;99.90
47626;DHT22;33342;45.574;9.252;2023-05-16T08:08:32;20.00;99.90
47626;DHT22;33342;45.574;9.252;2023-05-16T08:10:59;20.00;99.90
47626;DHT22;33342;45.574;9.252;2023-05-16T08:13:27;20.00;99.90
47626;DHT22;33342;45.574;9.252;2023-05-16T08:15:54;20.10;99.90
47626;DHT22;33342;45.574;9.252;2023-05-16T08:18:21;20.10;99.90
47626;DHT22;33342;45.574;9.252;2023-05-16T08:20:48;20.10;99.90
47626;DHT22;33342;45.574;9.252;2023-05-16T08:23:15;20.10;99.90
47626;DHT22;33342;45.574;9.252;2023-05-16T08:25:42;20.10;99.90
47626;DHT22;33342;45.574;9.252;2023-05-16T08:28:10;20.20;99.90
47626;DHT22;33342;45.574;9.252;2023-05-16T08:30:37;20.20;99.90
47626;DHT22;33342;45.574;9.252;2023-05-16T08:33:07;20.20;99.90
47626;DHT22;33342;45.574;9.252;2023-05-16T08:35:36;20.20;99.90
47626;DHT22;33342;45.574;9.252;2023-05-16T08:38:03;20.20;99.90
47626;DHT22;33342;45.574;9.252;2023-05-16T08:40:30;20.20;99.90
47626;DHT22;33342;45.574;9.252;2023-05-16T08:42:57;20.10;99.90
47626;DHT22;33342;45.574;9.252;2023-05-16T08:45:24;20.00;99.90
47626;DHT22;33342;45.574;9.252;2023-05-16T08:47:54;20.00;99.90
47626;DHT22;33342;45.574;9.252;2023-05-16T08:50:23;19.90;99.90
47626;DHT22;33342;45.574;9.252;2023-05-16T08:52:51;19.80;99.90
47626;DHT22;33342;45.574;9.252;2023-05-16T08:55:19;19.80;99.90
47626;DHT22;33342;45.574;9.252;2023-05-16T08:57:51;19.80;99.90
47626;DHT22;33342;45.574;9.252;2023-05-16T09:00:21;19.80;99.90
47626;DHT22;33342;45.574;9.252;2023-05-16T09:02:48;19.80;99.90
47626;DHT22;33342;45.574;9.252;2023-05-16T09:05:16;19.80;99.90
47626;DHT22;33342;45.574;9.252;2023-05-16T09:07:44;19.80;99.90
47626;DHT22;33342;45.574;9.252;2023-05-16T09:10:12;19.70;99.90
47626;DHT22;33342;45.574;9.252;2023-05-16T09:12:40;19.70;99.90
47626;DHT22;33342;45.574;9.252;2023-05-16T09:15:10;19.70;99.90
47626;DHT22;33342;45.574;9.252;2023-05-16T09:17:41;19.70;99.90
47626;DHT22;33342;45.574;9.252;2023-05-16T09:20:13;19.70;99.90
47626;DHT22;33342;45.574;9.252;2023-05-16T09:23:00;19.70;99.90
47626;DHT22;33342;45.574;9.252;2023-05-16T09:25:29;19.70;99.90
47626;DHT22;33342;45.574;9.252;2023-05-16T09:27:59;19.70;99.90
47626;DHT22;33342;45.574;9.252;2023-05-16T09:30:30;19.70;99.90
47626;DHT22;33342;45.574;9.252;2023-05-16T09:32:58;19.70;99.90
47626;DHT22;33342;45.574;9.252;2023-05-16T09:35:25;19.70;99.90
47626;DHT22;33342;45.574;9.252;2023-05-16T09:37:55;19.70;99.90
47626;DHT22;33342;45.574;9.252;2023-05-16T09:40:23;19.70;99.90
47626;DHT22;33342;45.574;9.252;2023-05-16T09:43:08;19.60;99.90
47626;DHT22;33342;45.574;9.252;2023-05-16T09:45:35;19.60;99.90
47626;DHT22;33342;45.574;9.252;2023-05-16T09:48:10;19.60;99.90
47626;DHT22;33342;45.574;9.252;2023-05-16T09:50:46;19.50;99.90
47626;DHT22;33342;45.574;9.252;2023-05-16T09:53:13;19.50;99.90
47626;DHT22;33342;45.574;9.252;2023-05-16T09:55:40;19.40;99.90
47626;DHT22;33342;45.574;9.252;2023-05-16T09:58:07;19.40;99.90
47626;DHT22;33342;45.574;9.252;2023-05-16T10:00:34;19.40;99.90
47626;DHT22;33342;45.574;9.252;2023-05-16T10:03:02;19.40;99.90
47626;DHT22;33342;45.574;9.252;2023-05-16T10:05:31;19.50;99.90
47626;DHT22;33342;45.574;9.252;2023-05-16T10:08:01;19.50;99.90
47626;DHT22;33342;45.574;9.252;2023-05-16T10:10:29;19.50;99.90
47626;DHT22;33342;45.574;9.252;2023-05-16T10:12:58;19.50;99.90
47626;DHT22;33342;45.574;9.252;2023-05-16T10:15:27;19.60;99.90
47626;DHT22;33342;45.574;9.252;2023-05-16T10:17:56;19.60;99.90
47626;DHT22;33342;45.574;9.252;2023-05-16T10:20:26;19.60;99.90
47626;DHT22;33342;45.574;9.252;2023-05-16T10:22:54;19.60;99.90
47626;DHT22;33342;45.574;9.252;2023-05-16T10:25:31;19.70;99.90
47626;DHT22;33342;45.574;9.252;2023-05-16T10:27:59;19.70;99.90
47626;DHT22;33342;45.574;9.252;2023-05-16T10:30:28;19.80;99.90
47626;DHT22;33342;45.574;9.252;2023-05-16T10:32:55;19.90;99.90
47626;DHT22;33342;45.574;9.252;2023-05-16T10:35:23;20.00;99.90
47626;DHT22;33342;45.574;9.252;2023-05-16T10:37:50;20.10;99.90
47626;DHT22;33342;45.574;9.252;2023-05-16T10:40:18;20.10;99.90
47626;DHT22;33342;45.574;9.252;2023-05-16T10:42:56;20.20;99.90
47626;DHT22;33342;45.574;9.252;2023-05-16T10:45:24;20.30;99.90
47626;DHT22;33342;45.574;9.252;2023-05-16T10:47:55;20.30;99.90
47626;DHT22;33342;45.574;9.252;2023-05-16T10:50:39;20.30;99.90
47626;DHT22;33342;45.574;9.252;2023-05-16T11:06:28;20.20;99.90
47626;DHT22;33342;45.574;9.252;2023-05-16T11:11:53;20.30;99.90
47626;DHT22;33342;45.574;9.252;2023-05-16T11:14:37;20.30;99.90
47626;DHT22;33342;45.574;9.252;2023-05-16T11:17:20;20.30;99.90
47626;DHT22;33342;45.574;9.252;2023-05-16T11:19:50;20.30;99.90
47626;DHT22;33342;45.574;9.252;2023-05-16T11:22:33;20.20;99.90
47626;DHT22;33342;45.574;9.252;2023-05-16T11:25:06;20.20;99.90
47626;DHT22;33342;45.574;9.252;2023-05-16T11:32:34;20.20;99.90
47626;DHT22;33342;45.574;9.252;2023-05-16T11:35:02;20.20;99.90
47626;DHT22;33342;45.574;9.252;2023-05-16T11:37:30;20.20;99.90
47626;DHT22;33342;45.574;9.252;2023-05-16T11:39:59;20.10;99.90
47626;DHT22;33342;45.574;9.252;2023-05-16T11:42:38;20.10;99.90
47626;DHT22;33342;45.574;9.252;2023-05-16T11:47:36;20.10;99.90
47626;DHT22;33342;45.574;9.252;2023-05-16T11:50:14;20.10;99.90
47626;DHT22;33342;45.574;9.252;2023-05-16T11:52:47;20.10;99.90
47626;DHT22;33342;45.574;9.252;2023-05-16T11:55:15;20.10;99.90
47626;DHT22;33342;45.574;9.252;2023-05-16T11:58:04;20.10;99.90
47626;DHT22;33342;45.574;9.252;2023-05-16T12:00:32;20.10;99.90
47626;DHT22;33342;45.574;9.252;2023-05-16T12:03:01;20.00;99.90
47626;DHT22;33342;45.574;9.252;2023-05-16T12:05:30;20.00;99.90
47626;DHT22;33342;45.574;9.252;2023-05-16T12:07:59;20.00;99.90
47626;DHT22;33342;45.574;9.252;2023-05-16T12:10:26;20.00;99.90
47626;DHT22;33342;45.574;9.252;2023-05-16T12:12:53;20.00;99.90
47626;DHT22;33342;45.574;9.252;2023-05-16T12:15:21;20.00;99.90
47626;DHT22;33342;45.574;9.252;2023-05-16T12:17:48;20.00;99.90
47626;DHT22;33342;45.574;9.252;2023-05-16T12:20:16;19.90;99.90
47626;DHT22;33342;45.574;9.252;2023-05-16T12:22:44;19.80;99.90
47626;DHT22;33342;45.574;9.252;2023-05-16T12:25:31;19.70;99.90
47626;DHT22;33342;45.574;9.252;2023-05-16T12:28:00;19.70;99.90
47626;DHT22;33342;45.574;9.252;2023-05-16T12:30:29;19.80;99.90
47626;DHT22;33342;45.574;9.252;2023-05-16T12:33:08;19.80;99.90
47626;DHT22;33342;45.574;9.252;2023-05-16T12:35:43;19.90;99.90
47626;DHT22;33342;45.574;9.252;2023-05-16T12:38:12;20.00;99.90
47626;DHT22;33342;45.574;9.252;2023-05-16T12:40:41;20.00;99.90
47626;DHT22;33342;45.574;9.252;2023-05-16T12:43:21;20.00;99.90
47626;DHT22;33342;45.574;9.252;2023-05-16T12:45:53;20.00;99.90
47626;DHT22;33342;45.574;9.252;2023-05-16T12:48:21;20.00;99.90
47626;DHT22;33342;45.574;9.252;2023-05-16T12:50:48;20.00;99.90
47626;DHT22;33342;45.574;9.252;2023-05-16T12:53:17;20.00;99.90
47626;DHT22;33342;45.574;9.252;2023-05-16T12:55:45;20.00;99.90
47626;DHT22;33342;45.574;9.252;2023-05-16T12:58:12;20.00;99.90
47626;DHT22;33342;45.574;9.252;2023-05-16T13:00:39;19.90;99.90
47626;DHT22;33342;45.574;9.252;2023-05-16T13:03:06;19.80;99.90
47626;DHT22;33342;45.574;9.252;2023-05-16T13:05:34;19.80;99.90
47626;DHT22;33342;45.574;9.252;2023-05-16T13:08:02;19.70;99.90
47626;DHT22;33342;45.574;9.252;2023-05-16T13:10:29;19.70;99.90
47626;DHT22;33342;45.574;9.252;2023-05-16T13:12:57;19.70;99.90
47626;DHT22;33342;45.574;9.252;2023-05-16T13:15:26;19.70;99.90
47626;DHT22;33342;45.574;9.252;2023-05-16T13:17:54;19.80;99.90
47626;DHT22;33342;45.574;9.252;2023-05-16T13:20:21;19.80;99.90
47626;DHT22;33342;45.574;9.252;2023-05-16T13:22:48;19.80;99.90
47626;DHT22;33342;45.574;9.252;2023-05-16T13:25:15;19.80;99.90
47626;DHT22;33342;45.574;9.252;2023-05-16T13:27:45;19.90;99.90
47626;DHT22;33342;45.574;9.252;2023-05-16T13:30:15;19.90;99.90
47626;DHT22;33342;45.574;9.252;2023-05-16T13:32:42;20.00;99.90
47626;DHT22;33342;45.574;9.252;2023-05-16T13:35:09;20.10;99.90
47626;DHT22;33342;45.574;9.252;2023-05-16T13:37:36;20.20;99.90
47626;DHT22;33342;45.574;9.252;2023-05-16T13:40:04;20.20;99.90
47626;DHT22;33342;45.574;9.252;2023-05-16T13:42:31;20.30;99.90
47626;DHT22;33342;45.574;9.252;2023-05-16T13:44:58;20.20;99.90
47626;DHT22;33342;45.574;9.252;2023-05-16T13:47:25;20.20;99.90
47626;DHT22;33342;45.574;9.252;2023-05-16T13:49:52;20.30;99.90
47626;DHT22;33342;45.574;9.252;2023-05-16T13:52:19;20.30;99.90
47626;DHT22;33342;45.574;9.252;2023-05-16T13:54:46;20.40;99.90
47626;DHT22;33342;45.574;9.252;2023-05-16T13:57:13;20.60;99.90
47626;DHT22;33342;45.574;9.252;2023-05-16T13:59:40;20.70;99.90
47626;DHT22;33342;45.574;9.252;2023-05-16T14:02:10;20.80;99.90
47626;DHT22;33342;45.574;9.252;2023-05-16T14:04:37;20.90;99.90
47626;DHT22;33342;45.574;9.252;2023-05-16T14:07:04;21.00;99.90
47626;DHT22;33342;45.574;9.252;2023-05-16T14:09:31;21.10;99.90
47626;DHT22;33342;45.574;9.252;2023-05-16T14:12:00;21.10;99.90
47626;DHT22;33342;45.574;9.252;2023-05-16T14:14:30;21.20;99.90
47626;DHT22;33342;45.574;9.252;2023-05-16T14:16:57;21.20;99.90
47626;DHT22;33342;45.574;9.252;2023-05-16T14:19:25;21.20;99.90
47626;DHT22;33342;45.574;9.252;2023-05-16T14:21:52;21.20;99.90
47626;DHT22;33342;45.574;9.252;2023-05-16T14:24:19;21.30;99.90
47626;DHT22;33342;45.574;9.252;2023-05-16T14:26:46;21.50;99.90
47626;DHT22;33342;45.574;9.252;2023-05-16T14:29:13;21.60;99.90
47626;DHT22;33342;45.574;9.252;2023-05-16T14:31:40;21.80;99.90
47626;DHT22;33342;45.574;9.252;2023-05-16T14:34:08;22.00;99.90
47626;DHT22;33342;45.574;9.252;2023-05-16T14:36:34;22.10;99.90
47626;DHT22;33342;45.574;9.252;2023-05-16T14:39:02;22.30;99.90
47626;DHT22;33342;45.574;9.252;2023-05-16T14:41:29;22.40;99.90
47626;DHT22;33342;45.574;9.252;2023-05-16T14:43:56;22.60;99.90
47626;DHT22;33342;45.574;9.252;2023-05-16T14:46:22;22.70;99.90
47626;DHT22;33342;45.574;9.252;2023-05-16T14:48:49;22.80;99.90
47626;DHT22;33342;45.574;9.252;2023-05-16T14:51:17;23.00;99.90
47626;DHT22;33342;45.574;9.252;2023-05-16T14:53:44;23.10;99.90
47626;DHT22;33342;45.574;9.252;2023-05-16T14:56:13;23.20;99.90
47626;DHT22;33342;45.574;9.252;2023-05-16T14:58:40;23.20;99.90
47626;DHT22;33342;45.574;9.252;2023-05-16T15:01:07;23.30;99.90
47626;DHT22;33342;45.574;9.252;2023-05-16T15:03:36;23.40;99.90
47626;DHT22;33342;45.574;9.252;2023-05-16T15:06:21;23.50;99.90
47626;DHT22;33342;45.574;9.252;2023-05-16T15:08:48;23.70;99.90
47626;DHT22;33342;45.574;9.252;2023-05-16T15:11:15;23.90;99.90
47626;DHT22;33342;45.574;9.252;2023-05-16T15:13:42;24.10;99.90
47626;DHT22;33342;45.574;9.252;2023-05-16T15:16:09;24.20;99.90
47626;DHT22;33342;45.574;9.252;2023-05-16T15:18:37;24.30;99.90
47626;DHT22;33342;45.574;9.252;2023-05-16T15:21:04;24.40;99.90
47626;DHT22;33342;45.574;9.252;2023-05-16T15:23:31;24.50;99.90
47626;DHT22;33342;45.574;9.252;2023-05-16T15:25:58;24.40;99.90
47626;DHT22;33342;45.574;9.252;2023-05-16T15:28:25;24.30;99.90
47626;DHT22;33342;45.574;9.252;2023-05-16T15:30:52;24.20;99.90
47626;DHT22;33342;45.574;9.252;2023-05-16T15:33:19;24.00;99.90
47626;DHT22;33342;45.574;9.252;2023-05-16T15:35:46;23.70;99.90
47626;DHT22;33342;45.574;9.252;2023-05-16T15:38:14;23.60;99.90
47626;DHT22;33342;45.574;9.252;2023-05-16T15:40:41;23.50;99.90
47626;DHT22;33342;45.574;9.252;2023-05-16T15:43:08;23.30;99.90
47626;DHT22;33342;45.574;9.252;2023-05-16T15:45:35;23.10;99.90
47626;DHT22;33342;45.574;9.252;2023-05-16T15:48:06;23.00;99.90
47626;DHT22;33342;45.574;9.252;2023-05-16T15:50:33;22.90;99.90
47626;DHT22;33342;45.574;9.252;2023-05-16T15:53:00;22.90;99.90
47626;DHT22;33342;45.574;9.252;2023-05-16T15:55:27;22.90;99.90
47626;DHT22;33342;45.574;9.252;2023-05-16T15:57:55;22.80;99.90
47626;DHT22;33342;45.574;9.252;2023-05-16T16:00:24;22.80;99.90
47626;DHT22;33342;45.574;9.252;2023-05-16T16:02:52;22.70;99.90
47626;DHT22;33342;45.574;9.252;2023-05-16T16:05:19;22.70;99.90
47626;DHT22;33342;45.574;9.252;2023-05-16T16:07:46;22.60;99.90
47626;DHT22;33342;45.574;9.252;2023-05-16T16:10:13;22.60;99.90